sensor_id;sensor_type;location;lat;lon;timestamp;temperature;humidity
5027;DHT22;2532;52.480;13.354;2023-08-21T04:01:02;23.90;99.90
5027;DHT22;2532;52.480;13.354;2023-08-21T04:03:29;24.00;99.90
5027;DHT22;2532;52.480;13.354;2023-08-21T04:05:56;23.90;99.90
5027;DHT22;2532;52.480;13.354;2023-08-21T04:08:24;23.90;99.90
5027;DHT22;2532;52.480;13.354;2023-08-21T04:10:51;23.90;99.90
5027;DHT22;2532;52.480;13.354;2023-08-21T04:13:19;23.90;99.90
5027;DHT22;2532;52.480;13.354;2023-08-21T04:15:48;23.90;99.90
5027;DHT22;2532;52.480;13.354;2023-08-21T04:18:16;23.80;99.90
5027;DHT22;2532;52.480;13.354;2023-08-21T04:20:43;23.80;99.90
5027;DHT22;2532;52.480;13.354;2023-08-21T04:23:10;23.90;99.90
5027;DHT22;2532;52.480;13.354;2023-08-21T04:25:36;23.90;99.90
5027;DHT22;2532;52.480;13.354;2023-08-21T04:28:04;23.90;99.90
5027;DHT22;2532;52.480;13.354;2023-08-21T04:30:31;23.90;99.90
5027;DHT22;2532;52.480;13.354;2023-08-21T04:32:58;23.90;99.90
5027;DHT22;2532;52.480;13.354;2023-08-21T04:35:26;23.90;99.90
5027;DHT22;2532;52.480;13.354;2023-08-21T04:37:54;23.90;99.90
5027;DHT22;2532;52.480;13.354;2023-08-21T04:40:20;23.90;99.90
5027;DHT22;2532;52.480;13.354;2023-08-21T04:42:47;23.90;99.90
5027;DHT22;2532;52.480;13.354;2023-08-21T04:45:14;24.00;99.90
5027;DHT22;2532;52.480;13.354;2023-08-21T04:47:41;24.00;99.90
5027;DHT22;2532;52.480;13.354;2023-08-21T04:50:08;24.00;99.90
5027;DHT22;2532;52.480;13.354;2023-08-21T04:52:37;24.00;99.90
5027;DHT22;2532;52.480;13.354;2023-08-21T04:55:05;24.00;99.90
5027;DHT22;2532;52.480;13.354;2023-08-21T04:57:32;24.00;99.90
5027;DHT22;2532;52.480;13.354;2023-08-21T04:59:59;24.00;99.90
5027;DHT22;2532;52.480;13.354;2023-08-21T05:02:26;23.90;99.90
5027;DHT22;2532;52.480;13.354;2023-08-21T05:04:53;23.90;99.90
5027;DHT22;2532;52.480;13.354;2023-08-21T05:07:20;23.90;99.90
5027;DHT22;2532;52.480;13.354;2023-08-21T05:09:48;23.90;99.90
5027;DHT22;2532;52.480;13.354;2023-08-21T05:12:15;23.80;99.90
5027;DHT22;2532;52.480;13.354;2023-08-21T05:14:42;23.80;99.90
5027;DHT22;2532;52.480;13.354;2023-08-21T05:17:09;23.80;99.90
5027;DHT22;2532;52.480;13.354;2023-08-21T05:19:36;23.80;99.90
5027;DHT22;2532;52.480;13.354;2023-08-21T05:22:03;23.80;99.90
5027;DHT22;2532;52.480;13.354;2023-08-21T05:24:30;23.80;99.90
5027;DHT22;2532;52.480;13.354;2023-08-21T05:26:59;23.90;99.90
5027;DHT22;2532;52.480;13.354;2023-08-21T05:29:25;23.90;99.90
5027;DHT22;2532;52.480;13.354;2023-08-21T05:31:52;23.90;99.90
5027;DHT22;2532;52.480;13.354;2023-08-21T05:34:19;23.90;99.90
5027;DHT22;2532;52.480;13.354;2023-08-21T05:36:46;24.00;99.90
5027;DHT22;2532;52.480;13.354;2023-08-21T05:39:13;24.00;99.90
5027;DHT22;2532;52.480;13.354;2023-08-21T05:41:40;24.00;99.90
5027;DHT22;2532;52.480;13.354;2023-08-21T05:44:08;24.10;99.90
5027;DHT22;2532;52.480;13.354;2023-08-21T05:46:35;24.10;99.90
5027;DHT22;2532;52.480;13.354;2023-08-21T05:49:03;24.20;99.90
5027;DHT22;2532;52.480;13.354;2023-08-21T05:51:31;24.30;99.90
5027;DHT22;2532;52.480;13.354;2023-08-21T05:53:58;24.30;99.90
5027;DHT22;2532;52.480;13.354;2023-08-21T05:56:25;24.40;99.90
5027;DHT22;2532;52.480;13.354;2023-08-21T05:58:51;24.50;99.90
5027;DHT22;2532;52.480;13.354;2023-08-21T06:01:20;24.50;99.90
5027;DHT22;2532;52.480;13.354;2023-08-21T06:03:46;24.60;99.90
5027;DHT22;2532;52.480;13.354;2023-08-21T06:06:13;24.70;99.90
5027;DHT22;2532;52.480;13.354;2023-08-21T06:08:40;24.70;99.90
5027;DHT22;2532;52.480;13.354;2023-08-21T06:11:07;24.80;99.90
5027;DHT22;2532;52.480;13.354;2023-08-21T06:13:34;24.90;99.90
5027;DHT22;2532;52.480;13.354;2023-08-21T06:16:01;24.90;99.90
5027;DHT22;2532;52.480;13.354;2023-08-21T06:18:29;25.00;99.90
5027;DHT22;2532;52.480;13.354;2023-08-21T06:20:56;25.10;99.90
5027;DHT22;2532;52.480;13.354;2023-08-21T06:23:23;25.10;99.90
5027;DHT22;2532;52.480;13.354;2023-08-21T06:25:50;25.20;99.90
5027;DHT22;2532;52.480;13.354;2023-08-21T06:28:17;25.20;99.90
5027;DHT22;2532;52.480;13.354;2023-08-21T06:30:44;25.30;99.90
5027;DHT22;2532;52.480;13.354;2023-08-21T06:33:11;25.40;99.90
5027;DHT22;2532;52.480;13.354;2023-08-21T06:35:39;25.50;99.90
5027;DHT22;2532;52.480;13.354;2023-08-21T06:38:06;25.50;99.90
5027;DHT22;2532;52.480;13.354;2023-08-21T06:40:33;25.50;99.90
5027;DHT22;2532;52.480;13.354;2023-08-21T06:43:00;25.60;99.90
5027;DHT22;2532;52.480;13.354;2023-08-21T06:45:27;25.60;99.90
5027;DHT22;2532;52.480;13.354;2023-08-21T06:47:56;25.50;99.90
5027;DHT22;2532;52.480;13.354;2023-08-21T06:50:23;25.50;99.90
5027;DHT22;2532;52.480;13.354;2023-08-21T06:52:51;25.50;99.90
5027;DHT22;2532;52.480;13.354;2023-08-21T06:55:18;25.50;99.90
5027;DHT22;2532;52.480;13.354;2023-08-21T06:57:45;25.40;99.90
5027;DHT22;2532;52.480;13.354;2023-08-21T07:00:13;25.40;99.90
5027;DHT22;2532;52.480;13.354;2023-08-21T07:02:40;25.40;99.90
5027;DHT22;2532;52.480;13.354;2023-08-21T07:05:07;25.40;99.90
5027;DHT22;2532;52.480;13.354;2023-08-21T07:07:34;25.50;99.90
5027;DHT22;2532;52.480;13.354;2023-08-21T07:10:03;25.50;99.90
5027;DHT22;2532;52.480;13.354;2023-08-21T07:12:30;25.50;99.90
5027;DHT22;2532;52.480;13.354;2023-08-21T07:14:57;25.60;99.90
5027;DHT22;2532;52.480;13.354;2023-08-21T07:17:24;25.60;99.80
5027;DHT22;2532;52.480;13.354;2023-08-21T07:19:51;25.70;99.70
5027;DHT22;2532;52.480;13.354;2023-08-21T07:22:19;25.70;99.20
5027;DHT22;2532;52.480;13.354;2023-08-21T07:24:46;25.80;99.10
5027;DHT22;2532;52.480;13.354;2023-08-21T07:27:14;25.90;99.00
5027;DHT22;2532;52.480;13.354;2023-08-21T07:29:41;26.00;98.50
5027;DHT22;2532;52.480;13.354;2023-08-21T07:32:08;26.00;98.30
5027;DHT22;2532;52.480;13.354;2023-08-21T07:34:35;26.00;98.20
5027;DHT22;2532;52.480;13.354;2023-08-21T07:37:02;26.00;97.80
5027;DHT22;2532;52.480;13.354;2023-08-21T07:39:29;26.00;97.50
5027;DHT22;2532;52.480;13.354;2023-08-21T07:41:56;25.90;97.50
5027;DHT22;2532;52.480;13.354;2023-08-21T07:44:24;25.90;97.70
5027;DHT22;2532;52.480;13.354;2023-08-21T07:46:51;25.80;97.40
5027;DHT22;2532;52.480;13.354;2023-08-21T07:49:20;25.80;96.80
5027;DHT22;2532;52.480;13.354;2023-08-21T07:51:47;25.80;96.30
5027;DHT22;2532;52.480;13.354;2023-08-21T07:54:13;25.80;96.00
5027;DHT22;2532;52.480;13.354;2023-08-21T07:56:41;25.80;95.90
5027;DHT22;2532;52.480;13.354;2023-08-21T07:59:08;26.00;96.10
5027;DHT22;2532;52.480;13.354;2023-08-21T08:01:36;26.00;96.00
5027;DHT22;2532;52.480;13.354;2023-08-21T08:04:03;26.10;95.70
5027;DHT22;2532;52.480;13.354;2023-08-21T08:06:31;26.10;95.20
5027;DHT22;2532;52.480;13.354;2023-08-21T08:08:58;26.10;93.80
5027;DHT22;2532;52.480;13.354;2023-08-21T08:11:26;26.10;94.60
5027;DHT22;2532;52.480;13.354;2023-08-21T08:13:52;26.10;92.90
5027;DHT22;2532;52.480;13.354;2023-08-21T08:16:19;26.10;92.30
5027;DHT22;2532;52.480;13.354;2023-08-21T08:18:47;26.10;91.60
5027;DHT22;2532;52.480;13.354;2023-08-21T08:21:14;26.10;91.20
5027;DHT22;2532;52.480;13.354;2023-08-21T08:23:41;26.00;91.20
5027;DHT22;2532;52.480;13.354;2023-08-21T08:26:08;26.00;91.70
5027;DHT22;2532;52.480;13.354;2023-08-21T08:28:35;26.10;91.90
5027;DHT22;2532;52.480;13.354;2023-08-21T08:31:02;26.00;91.90
5027;DHT22;2532;52.480;13.354;2023-08-21T08:33:29;26.00;91.90
5027;DHT22;2532;52.480;13.354;2023-08-21T08:35:57;25.90;92.70
5027;DHT22;2532;52.480;13.354;2023-08-21T08:38:24;25.90;92.50
5027;DHT22;2532;52.480;13.354;2023-08-21T08:40:53;25.90;92.80
5027;DHT22;2532;52.480;13.354;2023-08-21T08:43:24;25.90;92.90
5027;DHT22;2532;52.480;13.354;2023-08-21T08:45:53;25.90;92.80
5027;DHT22;2532;52.480;13.354;2023-08-21T08:48:22;26.00;93.10
5027;DHT22;2532;52.480;13.354;2023-08-21T08:50:50;26.10;93.10
5027;DHT22;2532;52.480;13.354;2023-08-21T08:53:19;26.20;92.90
5027;DHT22;2532;52.480;13.354;2023-08-21T08:55:46;26.20;92.10
5027;DHT22;2532;52.480;13.354;2023-08-21T08:58:13;26.20;91.70
5027;DHT22;2532;52.480;13.354;2023-08-21T09:00:40;26.20;90.80
5027;DHT22;2532;52.480;13.354;2023-08-21T09:03:07;26.30;90.30
5027;DHT22;2532;52.480;13.354;2023-08-21T09:05:36;26.30;86.20
5027;DHT22;2532;52.480;13.354;2023-08-21T09:08:09;26.50;86.70
5027;DHT22;2532;52.480;13.354;2023-08-21T09:10:38;26.60;86.00
5027;DHT22;2532;52.480;13.354;2023-08-21T09:13:12;26.80;84.40
5027;DHT22;2532;52.480;13.354;2023-08-21T09:15:41;27.00;78.90
5027;DHT22;2532;52.480;13.354;2023-08-21T09:18:09;27.10;78.80
5027;DHT22;2532;52.480;13.354;2023-08-21T09:20:37;27.20;77.40
5027;DHT22;2532;52.480;13.354;2023-08-21T09:23:05;27.20;78.10
5027;DHT22;2532;52.480;13.354;2023-08-21T09:25:37;27.30;78.50
5027;DHT22;2532;52.480;13.354;2023-08-21T09:28:05;27.40;78.40
5027;DHT22;2532;52.480;13.354;2023-08-21T09:30:46;27.30;78.00
5027;DHT22;2532;52.480;13.354;2023-08-21T09:33:13;27.40;77.90
5027;DHT22;2532;52.480;13.354;2023-08-21T09:35:43;27.40;78.30
5027;DHT22;2532;52.480;13.354;2023-08-21T09:38:10;27.40;77.80
5027;DHT22;2532;52.480;13.354;2023-08-21T09:40:42;27.40;78.00
5027;DHT22;2532;52.480;13.354;2023-08-21T09:43:10;27.40;77.80
5027;DHT22;2532;52.480;13.354;2023-08-21T09:45:38;27.30;77.10
5027;DHT22;2532;52.480;13.354;2023-08-21T09:48:06;27.40;77.70
5027;DHT22;2532;52.480;13.354;2023-08-21T09:50:33;27.50;77.10
5027;DHT22;2532;52.480;13.354;2023-08-21T09:53:02;27.70;77.50
5027;DHT22;2532;52.480;13.354;2023-08-21T09:55:31;27.80;76.90
5027;DHT22;2532;52.480;13.354;2023-08-21T09:58:00;27.80;77.20
5027;DHT22;2532;52.480;13.354;2023-08-21T10:00:31;27.80;76.60
5027;DHT22;2532;52.480;13.354;2023-08-21T10:03:00;27.90;76.30
5027;DHT22;2532;52.480;13.354;2023-08-21T10:05:29;27.90;75.80
5027;DHT22;2532;52.480;13.354;2023-08-21T10:08:00;27.90;77.10
5027;DHT22;2532;52.480;13.354;2023-08-21T10:10:29;28.00;76.10
5027;DHT22;2532;52.480;13.354;2023-08-21T10:12:56;28.10;76.70
5027;DHT22;2532;52.480;13.354;2023-08-21T10:15:26;28.10;76.10
5027;DHT22;2532;52.480;13.354;2023-08-21T10:17:54;28.10;75.30
5027;DHT22;2532;52.480;13.354;2023-08-21T10:20:22;28.10;76.40
5027;DHT22;2532;52.480;13.354;2023-08-21T10:22:52;28.10;75.90
5027;DHT22;2532;52.480;13.354;2023-08-21T10:25:20;28.10;76.50
5027;DHT22;2532;52.480;13.354;2023-08-21T10:27:52;28.10;75.90
5027;DHT22;2532;52.480;13.354;2023-08-21T10:30:23;28.20;76.50
5027;DHT22;2532;52.480;13.354;2023-08-21T10:32:54;28.20;75.80
5027;DHT22;2532;52.480;13.354;2023-08-21T10:35:22;28.30;75.10
5027;DHT22;2532;52.480;13.354;2023-08-21T10:38:11;28.30;74.50
5027;DHT22;2532;52.480;13.354;2023-08-21T10:40:41;28.40;73.40
5027;DHT22;2532;52.480;13.354;2023-08-21T10:43:37;28.40;73.10
5027;DHT22;2532;52.480;13.354;2023-08-21T10:46:05;28.40;73.40
5027;DHT22;2532;52.480;13.354;2023-08-21T10:48:33;28.40;73.30
5027;DHT22;2532;52.480;13.354;2023-08-21T10:51:01;28.30;73.90
5027;DHT22;2532;52.480;13.354;2023-08-21T10:53:30;28.40;73.50
5027;DHT22;2532;52.480;13.354;2023-08-21T10:55:57;28.40;73.60
5027;DHT22;2532;52.480;13.354;2023-08-21T10:58:27;28.50;72.00
5027;DHT22;2532;52.480;13.354;2023-08-21T11:00:57;28.50;72.00
5027;DHT22;2532;52.480;13.354;2023-08-21T11:03:24;28.60;71.50
5027;DHT22;2532;52.480;13.354;2023-08-21T11:06:03;28.60;71.80
5027;DHT22;2532;52.480;13.354;2023-08-21T11:08:31;28.60;71.50
5027;DHT22;2532;52.480;13.354;2023-08-21T11:10:58;28.50;71.10
5027;DHT22;2532;52.480;13.354;2023-08-21T11:13:25;28.60;72.20
5027;DHT22;2532;52.480;13.354;2023-08-21T11:15:59;28.60;72.00
5027;DHT22;2532;52.480;13.354;2023-08-21T11:18:30;28.60;72.90
5027;DHT22;2532;52.480;13.354;2023-08-21T11:21:05;28.60;72.40
5027;DHT22;2532;52.480;13.354;2023-08-21T11:23:32;28.50;72.30
5027;DHT22;2532;52.480;13.354;2023-08-21T11:26:01;28.40;70.80
5027;DHT22;2532;52.480;13.354;2023-08-21T11:28:30;28.40;70.40
5027;DHT22;2532;52.480;13.354;2023-08-21T11:30:57;28.40;71.40
5027;DHT22;2532;52.480;13.354;2023-08-21T11:33:25;28.30;72.40
5027;DHT22;2532;52.480;13.354;2023-08-21T11:35:52;28.40;71.10
5027;DHT22;2532;52.480;13.354;2023-08-21T11:38:22;28.40;71.60
5027;DHT22;2532;52.480;13.354;2023-08-21T11:40:54;28.40;72.40
5027;DHT22;2532;52.480;13.354;2023-08-21T11:43:21;28.50;72.10
5027;DHT22;2532;52.480;13.354;2023-08-21T11:45:48;28.60;70.80
5027;DHT22;2532;52.480;13.354;2023-08-21T11:48:15;28.70;69.20
5027;DHT22;2532;52.480;13.354;2023-08-21T11:50:48;28.70;68.80
5027;DHT22;2532;52.480;13.354;2023-08-21T11:53:30;28.60;67.90
5027;DHT22;2532;52.480;13.354;2023-08-21T11:55:57;28.60;68.50
5027;DHT22;2532;52.480;13.354;2023-08-21T11:58:26;28.60;70.10
5027;DHT22;2532;52.480;13.354;2023-08-21T12:00:53;28.60;69.80
5027;DHT22;2532;52.480;13.354;2023-08-21T12:03:20;28.50;68.00
5027;DHT22;2532;52.480;13.354;2023-08-21T12:05:47;28.50;68.20
5027;DHT22;2532;52.480;13.354;2023-08-21T12:08:14;28.50;68.40
5027;DHT22;2532;52.480;13.354;2023-08-21T12:10:42;28.50;68.70
5027;DHT22;2532;52.480;13.354;2023-08-21T12:13:09;28.40;68.90
5027;DHT22;2532;52.480;13.354;2023-08-21T12:15:36;28.30;69.30
5027;DHT22;2532;52.480;13.354;2023-08-21T12:18:03;28.10;68.90
5027;DHT22;2532;52.480;13.354;2023-08-21T12:20:30;28.10;69.50
5027;DHT22;2532;52.480;13.354;2023-08-21T12:22:58;28.00;69.50
5027;DHT22;2532;52.480;13.354;2023-08-21T12:25:25;28.00;70.20
5027;DHT22;2532;52.480;13.354;2023-08-21T12:27:53;28.00;70.60
5027;DHT22;2532;52.480;13.354;2023-08-21T12:30:20;27.90;70.40
5027;DHT22;2532;52.480;13.354;2023-08-21T12:32:47;27.90;70.30
5027;DHT22;2532;52.480;13.354;2023-08-21T12:35:14;28.00;71.30
5027;DHT22;2532;52.480;13.354;2023-08-21T12:37:41;28.00;71.90
5027;DHT22;2532;52.480;13.354;2023-08-21T12:40:08;28.00;72.10
5027;DHT22;2532;52.480;13.354;2023-08-21T12:42:35;28.10;72.50
5027;DHT22;2532;52.480;13.354;2023-08-21T12:45:04;28.10;72.70
5027;DHT22;2532;52.480;13.354;2023-08-21T12:47:31;28.10;72.20
5027;DHT22;2532;52.480;13.354;2023-08-21T12:49:58;28.10;72.10
5027;DHT22;2532;52.480;13.354;2023-08-21T12:52:25;28.10;70.90
5027;DHT22;2532;52.480;13.354;2023-08-21T12:54:52;28.10;70.50
5027;DHT22;2532;52.480;13.354;2023-08-21T12:57:19;28.20;70.70
5027;DHT22;2532;52.480;13.354;2023-08-21T12:59:47;28.20;70.10
5027;DHT22;2532;52.480;13.354;2023-08-21T13:02:15;28.20;69.80
5027;DHT22;2532;52.480;13.354;2023-08-21T13:04:42;28.30;70.50
5027;DHT22;2532;52.480;13.354;2023-08-21T13:07:09;28.30;71.30
5027;DHT22;2532;52.480;13.354;2023-08-21T13:09:36;28.30;71.20
5027;DHT22;2532;52.480;13.354;2023-08-21T13:12:03;28.40;69.80
5027;DHT22;2532;52.480;13.354;2023-08-21T13:14:30;28.50;69.80
5027;DHT22;2532;52.480;13.354;2023-08-21T13:16:57;28.50;69.40
5027;DHT22;2532;52.480;13.354;2023-08-21T13:19:26;28.60;67.70
5027;DHT22;2532;52.480;13.354;2023-08-21T13:21:53;28.80;66.40
5027;DHT22;2532;52.480;13.354;2023-08-21T13:24:20;28.90;64.80
5027;DHT22;2532;52.480;13.354;2023-08-21T13:26:47;29.00;64.90
5027;DHT22;2532;52.480;13.354;2023-08-21T13:29:14;29.10;64.50
5027;DHT22;2532;52.480;13.354;2023-08-21T13:31:41;29.10;64.50
5027;DHT22;2532;52.480;13.354;2023-08-21T13:34:08;29.20;64.60
5027;DHT22;2532;52.480;13.354;2023-08-21T13:36:37;29.30;64.30
5027;DHT22;2532;52.480;13.354;2023-08-21T13:39:04;29.40;64.40
5027;DHT22;2532;52.480;13.354;2023-08-21T13:41:31;29.50;62.70
5027;DHT22;2532;52.480;13.354;2023-08-21T13:43:58;29.60;63.10
5027;DHT22;2532;52.480;13.354;2023-08-21T13:46:25;29.80;64.80
5027;DHT22;2532;52.480;13.354;2023-08-21T13:48:52;29.80;64.30
5027;DHT22;2532;52.480;13.354;2023-08-21T13:51:19;29.90;62.50
5027;DHT22;2532;52.480;13.354;2023-08-21T13:53:47;29.80;59.80
5027;DHT22;2532;52.480;13.354;2023-08-21T13:56:14;29.80;58.90
5027;DHT22;2532;52.480;13.354;2023-08-21T13:58:41;29.70;57.20
5027;DHT22;2532;52.480;13.354;2023-08-21T14:01:08;29.60;54.90
5027;DHT22;2532;52.480;13.354;2023-08-21T14:03:38;29.60;55.70
5027;DHT22;2532;52.480;13.354;2023-08-21T14:06:05;29.60;56.30
5027;DHT22;2532;52.480;13.354;2023-08-21T14:08:36;29.60;57.20
5027;DHT22;2532;52.480;13.354;2023-08-21T14:11:04;29.50;57.50
5027;DHT22;2532;52.480;13.354;2023-08-21T14:13:31;29.60;57.80
5027;DHT22;2532;52.480;13.354;2023-08-21T14:15:58;29.60;57.60
5027;DHT22;2532;52.480;13.354;2023-08-21T14:18:25;29.80;57.80
5027;DHT22;2532;52.480;13.354;2023-08-21T14:20:52;29.90;57.90
5027;DHT22;2532;52.480;13.354;2023-08-21T14:23:19;30.00;57.70
5027;DHT22;2532;52.480;13.354;2023-08-21T14:25:54;30.10;57.00
5027;DHT22;2532;52.480;13.354;2023-08-21T14:28:22;30.20;56.10
5027;DHT22;2532;52.480;13.354;2023-08-21T14:30:49;30.20;55.70
5027;DHT22;2532;52.480;13.354;2023-08-21T14:33:17;30.30;56.50
5027;DHT22;2532;52.480;13.354;2023-08-21T14:35:45;30.40;56.30
5027;DHT22;2532;52.480;13.354;2023-08-21T14:38:12;30.40;56.30
5027;DHT22;2532;52.480;13.354;2023-08-21T14:40:39;30.40;56.40
5027;DHT22;2532;52.480;13.354;2023-08-21T14:43:06;30.30;57.60
5027;DHT22;2532;52.480;13.354;2023-08-21T14:45:34;30.30;57.90
5027;DHT22;2532;52.480;13.354;2023-08-21T14:48:01;30.20;57.30
5027;DHT22;2532;52.480;13.354;2023-08-21T14:50:28;30.10;57.30
5027;DHT22;2532;52.480;13.354;2023-08-21T14:52:55;30.20;58.10
5027;DHT22;2532;52.480;13.354;2023-08-21T14:55:22;30.20;58.20
5027;DHT22;2532;52.480;13.354;2023-08-21T14:57:49;30.00;58.20
5027;DHT22;2532;52.480;13.354;2023-08-21T15:00:16;29.90;58.70
5027;DHT22;2532;52.480;13.354;2023-08-21T15:02:44;29.80;58.60
5027;DHT22;2532;52.480;13.354;2023-08-21T15:05:11;29.80;58.80
5027;DHT22;2532;52.480;13.354;2023-08-21T15:07:41;29.70;59.50
5027;DHT22;2532;52.480;13.354;2023-08-21T15:10:09;29.70;59.60
5027;DHT22;2532;52.480;13.354;2023-08-21T15:12:36;29.70;60.30
5027;DHT22;2532;52.480;13.354;2023-08-21T15:15:04;29.80;60.10
5027;DHT22;2532;52.480;13.354;2023-08-21T15:17:31;29.80;59.90
5027;DHT22;2532;52.480;13.354;2023-08-21T15:20:00;29.90;60.00
5027;DHT22;2532;52.480;13.354;2023-08-21T15:22:30;29.80;59.70
5027;DHT22;2532;52.480;13.354;2023-08-21T15:24:57;29.70;60.30
5027;DHT22;2532;52.480;13.354;2023-08-21T15:27:24;29.60;60.60
5027;DHT22;2532;52.480;13.354;2023-08-21T15:29:51;29.60;60.40
5027;DHT22;2532;52.480;13.354;2023-08-21T15:32:18;29.60;60.90
5027;DHT22;2532;52.480;13.354;2023-08-21T15:34:45;29.70;61.30
5027;DHT22;2532;52.480;13.354;2023-08-21T15:37:13;29.80;61.00
5027;DHT22;2532;52.480;13.354;2023-08-21T15:39:40;29.90;60.40
5027;DHT22;2532;52.480;13.354;2023-08-21T15:42:07;29.90;60.90
5027;DHT22;2532;52.480;13.354;2023-08-21T15:44:34;30.10;60.80
5027;DHT22;2532;52.480;13.354;2023-08-21T15:47:01;30.20;59.90
5027;DHT22;2532;52.480;13.354;2023-08-21T15:49:28;30.30;60.50
5027;DHT22;2532;52.480;13.354;2023-08-21T15:51:55;30.50;60.70
5027;DHT22;2532;52.480;13.354;2023-08-21T15:54:30;30.60;60.10
5027;DHT22;2532;52.480;13.354;2023-08-21T15:56:57;30.70;59.70
5027;DHT22;2532;52.480;13.354;2023-08-21T15:59:24;30.80;59.70
5027;DHT22;2532;52.480;13.354;2023-08-21T16:01:50;30.80;59.30
5027;DHT22;2532;52.480;13.354;2023-08-21T16:04:17;30.90;59.10
5027;DHT22;2532;52.480;13.354;2023-08-21T16:06:45;31.00;59.00
5027;DHT22;2532;52.480;13.354;2023-08-21T16:09:11;31.10;58.40
5027;DHT22;2532;52.480;13.354;2023-08-21T16:11:40;31.00;58.30
5027;DHT22;2532;52.480;13.354;2023-08-21T16:14:06;31.10;58.60
5027;DHT22;2532;52.480;13.354;2023-08-21T16:16:34;31.10;58.40
5027;DHT22;2532;52.480;13.354;2023-08-21T16:19:01;31.10;58.30
5027;DHT22;2532;52.480;13.354;2023-08-21T16:21:28;31.10;58.30
5027;DHT22;2532;52.480;13.354;2023-08-21T16:23:55;31.10;58.50
5027;DHT22;2532;52.480;13.354;2023-08-21T16:26:22;31.10;58.70
5027;DHT22;2532;52.480;13.354;2023-08-21T16:28:50;31.20;58.80
5027;DHT22;2532;52.480;13.354;2023-08-21T16:31:17;31.30;59.00
5027;DHT22;2532;52.480;13.354;2023-08-21T16:33:44;31.40;58.10
5027;DHT22;2532;52.480;13.354;2023-08-21T16:36:11;31.50;58.10
5027;DHT22;2532;52.480;13.354;2023-08-21T16:38:38;31.60;58.00
5027;DHT22;2532;52.480;13.354;2023-08-21T16:41:05;31.60;57.90
5027;DHT22;2532;52.480;13.354;2023-08-21T16:43:31;31.70;58.10
5027;DHT22;2532;52.480;13.354;2023-08-21T16:46:00;31.80;58.00
5027;DHT22;2532;52.480;13.354;2023-08-21T16:48:27;31.90;58.00
5027;DHT22;2532;52.480;13.354;2023-08-21T16:50:54;32.00;57.70
5027;DHT22;2532;52.480;13.354;2023-08-21T16:53:20;32.10;57.20
5027;DHT22;2532;52.480;13.354;2023-08-21T16:55:47;32.20;57.20
5027;DHT22;2532;52.480;13.354;2023-08-21T16:58:14;32.30;56.50
5027;DHT22;2532;52.480;13.354;2023-08-21T17:00:41;32.40;56.40
5027;DHT22;2532;52.480;13.354;2023-08-21T17:03:10;32.40;56.20
5027;DHT22;2532;52.480;13.354;2023-08-21T17:05:37;32.30;55.70
5027;DHT22;2532;52.480;13.354;2023-08-21T17:08:04;32.10;55.70
5027;DHT22;2532;52.480;13.354;2023-08-21T17:10:31;32.00;55.60
5027;DHT22;2532;52.480;13.354;2023-08-21T17:12:58;31.80;55.50
5027;DHT22;2532;52.480;13.354;2023-08-21T17:15:25;31.70;55.60
5027;DHT22;2532;52.480;13.354;2023-08-21T17:17:52;31.70;55.70
5027;DHT22;2532;52.480;13.354;2023-08-21T17:20:20;31.60;56.10
5027;DHT22;2532;52.480;13.354;2023-08-21T17:22:50;31.70;55.40
5027;DHT22;2532;52.480;13.354;2023-08-21T17:25:17;31.70;55.30
5027;DHT22;2532;52.480;13.354;2023-08-21T17:27:44;31.60;55.20
5027;DHT22;2532;52.480;13.354;2023-08-21T17:30:12;31.50;55.10
5027;DHT22;2532;52.480;13.354;2023-08-21T17:32:39;31.40;54.80
5027;DHT22;2532;52.480;13.354;2023-08-21T17:35:07;31.30;55.70
5027;DHT22;2532;52.480;13.354;2023-08-21T17:37:35;31.30;55.40
5027;DHT22;2532;52.480;13.354;2023-08-21T17:40:02;31.10;55.50
5027;DHT22;2532;52.480;13.354;2023-08-21T17:42:32;30.80;55.70
5027;DHT22;2532;52.480;13.354;2023-08-21T17:44:59;30.50;56.40
5027;DHT22;2532;52.480;13.354;2023-08-21T17:47:26;30.20;57.10
5027;DHT22;2532;52.480;13.354;2023-08-21T17:49:53;29.90;57.50
5027;DHT22;2532;52.480;13.354;2023-08-21T17:52:21;29.60;58.00
5027;DHT22;2532;52.480;13.354;2023-08-21T17:54:49;29.40;58.70
5027;DHT22;2532;52.480;13.354;2023-08-21T17:57:16;29.10;59.30
5027;DHT22;2532;52.480;13.354;2023-08-21T17:59:43;28.80;59.80
5027;DHT22;2532;52.480;13.354;2023-08-21T18:02:10;28.50;60.20
5027;DHT22;2532;52.480;13.354;2023-08-21T18:04:37;28.30;60.70
5027;DHT22;2532;52.480;13.354;2023-08-21T18:07:04;28.20;61.50
5027;DHT22;2532;52.480;13.354;2023-08-21T18:09:31;28.00;62.00
5027;DHT22;2532;52.480;13.354;2023-08-21T18:12:03;27.90;62.20
5027;DHT22;2532;52.480;13.354;2023-08-21T18:14:30;27.80;62.80
5027;DHT22;2532;52.480;13.354;2023-08-21T18:17:00;27.70;63.00
5027;DHT22;2532;52.480;13.354;2023-08-21T18:19:29;27.60;63.50
5027;DHT22;2532;52.480;13.354;2023-08-21T18:21:56;27.50;64.20
5027;DHT22;2532;52.480;13.354;2023-08-21T18:24:23;27.40;64.50
5027;DHT22;2532;52.480;13.354;2023-08-21T18:26:50;27.40;65.00
5027;DHT22;2532;52.480;13.354;2023-08-21T18:29:20;27.30;65.40
5027;DHT22;2532;52.480;13.354;2023-08-21T18:31:47;27.20;65.60
5027;DHT22;2532;52.480;13.354;2023-08-21T18:34:14;27.10;65.30
5027;DHT22;2532;52.480;13.354;2023-08-21T18:36:41;27.00;65.70
5027;DHT22;2532;52.480;13.354;2023-08-21T18:39:08;27.00;66.00
5027;DHT22;2532;52.480;13.354;2023-08-21T18:41:35;26.90;66.00
5027;DHT22;2532;52.480;13.354;2023-08-21T18:44:03;26.90;66.40
5027;DHT22;2532;52.480;13.354;2023-08-21T18:46:31;26.80;66.50
5027;DHT22;2532;52.480;13.354;2023-08-21T18:48:58;26.70;67.20
5027;DHT22;2532;52.480;13.354;2023-08-21T18:51:25;26.70;66.80
5027;DHT22;2532;52.480;13.354;2023-08-21T18:53:52;26.70;66.80
5027;DHT22;2532;52.480;13.354;2023-08-21T18:56:19;26.60;66.60
5027;DHT22;2532;52.480;13.354;2023-08-21T18:58:46;26.60;67.10
5027;DHT22;2532;52.480;13.354;2023-08-21T19:01:13;26.60;66.50
5027;DHT22;2532;52.480;13.354;2023-08-21T19:03:41;26.50;66.70
5027;DHT22;2532;52.480;13.354;2023-08-21T19:06:10;26.50;66.50
5027;DHT22;2532;52.480;13.354;2023-08-21T19:08:37;26.50;66.80
5027;DHT22;2532;52.480;13.354;2023-08-21T19:11:04;26.40;66.70
5027;DHT22;2532;52.480;13.354;2023-08-21T19:13:32;26.40;66.80
5027;DHT22;2532;52.480;13.354;2023-08-21T19:16:01;26.40;66.40
5027;DHT22;2532;52.480;13.354;2023-08-21T19:18:28;26.30;66.50
5027;DHT22;2532;52.480;13.354;2023-08-21T19:20:58;26.30;66.70
5027;DHT22;2532;52.480;13.354;2023-08-21T19:23:25;26.30;66.50
5027;DHT22;2532;52.480;13.354;2023-08-21T19:25:52;26.30;66.70
5027;DHT22;2532;52.480;13.354;2023-08-21T19:28:19;26.20;66.50
5027;DHT22;2532;52.480;13.354;2023-08-21T19:30:46;26.20;66.70
5027;DHT22;2532;52.480;13.354;2023-08-21T19:33:15;26.30;66.60
5027;DHT22;2532;52.480;13.354;2023-08-21T19:35:42;26.20;66.40
5027;DHT22;2532;52.480;13.354;2023-08-21T19:38:12;26.30;66.70
5027;DHT22;2532;52.480;13.354;2023-08-21T19:40:39;26.30;66.70
5027;DHT22;2532;52.480;13.354;2023-08-21T19:43:09;26.20;66.70
5027;DHT22;2532;52.480;13.354;2023-08-21T19:45:36;26.20;66.70
5027;DHT22;2532;52.480;13.354;2023-08-21T19:48:04;26.20;66.90